createdAt,value
2023-01-17T00:03:57.382Z,29.50
2023-01-17T00:09:20.510Z,39.97
2023-01-17T00:14:25.214Z,29.85
2023-01-17T00:25:10.008Z,30.83
2023-01-17T00:30:14.326Z,28.58
2023-01-17T00:35:17.952Z,31.73
2023-01-17T00:40:22.713Z,30.40
2023-01-17T00:45:44.933Z,33.70
2023-01-17T00:51:07.167Z,31.92
2023-01-17T00:56:30.596Z,28.42
2023-01-17T01:01:54.226Z,25.67
2023-01-17T01:07:16.483Z,29.48
2023-01-17T01:12:39.923Z,28.95
2023-01-17T01:18:01.693Z,31.40
2023-01-17T01:23:24.359Z,31.40
2023-01-17T01:28:48.229Z,28.70
2023-01-17T01:33:53.666Z,30.40
2023-01-17T01:38:58.208Z,31.75
2023-01-17T01:44:04.384Z,30.13
2023-01-17T01:49:18.831Z,29.45
2023-01-17T01:59:33.914Z,29.35
2023-01-17T02:04:38.849Z,32.90
2023-01-17T02:09:43.710Z,32.00
2023-01-17T02:20:35.178Z,30.52
2023-01-17T02:31:18.855Z,26.77
2023-01-17T02:36:30.139Z,25.55
2023-01-17T02:41:38.744Z,19.25
2023-01-17T02:46:50.000Z,15.27
2023-01-17T02:52:21.833Z,12.23
2023-01-17T02:57:56.516Z,11.88
2023-01-17T03:03:14.188Z,10.00
2023-01-17T03:08:19.607Z,13.77
2023-01-17T03:13:24.337Z,12.65
2023-01-17T03:18:30.093Z,11.18
2023-01-17T03:23:34.337Z,12.20
2023-01-17T03:28:38.744Z,10.45
2023-01-17T03:33:45.155Z,8.40
2023-01-17T03:38:49.940Z,10.60
2023-01-17T03:49:00.463Z,10.50
2023-01-17T03:54:05.006Z,9.07
2023-01-17T03:59:11.520Z,6.85
2023-01-17T04:04:18.559Z,7.20
2023-01-17T04:09:23.056Z,7.30
2023-01-17T04:14:27.549Z,7.38
2023-01-17T04:19:36.756Z,8.13
2023-01-17T04:24:41.567Z,8.25
2023-01-17T04:29:46.866Z,9.95
2023-01-17T04:34:53.011Z,7.50
2023-01-17T04:39:57.663Z,10.38
2023-01-17T04:45:01.908Z,8.32
2023-01-17T04:50:09.078Z,6.82
2023-01-17T04:55:13.655Z,7.28
2023-01-17T05:00:19.961Z,9.00
2023-01-17T05:05:25.851Z,12.40
2023-01-17T05:10:30.631Z,10.85
2023-01-17T05:20:40.990Z,9.10
2023-01-17T05:25:45.538Z,8.23
2023-01-17T05:30:49.934Z,8.88
2023-01-17T05:35:56.711Z,6.25
2023-01-17T05:41:01.825Z,8.55
2023-01-17T05:46:06.675Z,10.75
2023-01-17T05:51:12.595Z,10.50
2023-01-17T05:56:17.047Z,7.47
2023-01-17T06:01:21.565Z,10.63
2023-01-17T06:11:32.052Z,9.45
2023-01-17T06:16:36.891Z,11.23
2023-01-17T06:26:47.316Z,12.30
2023-01-17T06:31:52.099Z,9.50
2023-01-17T06:42:02.437Z,12.57
2023-01-17T06:47:06.677Z,13.43
2023-01-17T06:52:12.317Z,14.48
2023-01-17T06:57:16.994Z,10.93
2023-01-17T07:07:27.535Z,16.73
2023-01-17T07:12:32.128Z,16.55
2023-01-17T07:17:37.030Z,15.98
2023-01-17T07:22:46.187Z,17.63
2023-01-17T07:27:53.978Z,12.00
2023-01-17T07:32:58.536Z,12.75
2023-01-17T07:38:05.959Z,17.48
2023-01-17T07:43:14.391Z,18.05
2023-01-17T07:48:20.148Z,17.33
2023-01-17T07:53:27.617Z,15.82
2023-01-17T07:58:33.236Z,15.70
2023-01-17T08:03:40.118Z,17.15
2023-01-17T08:08:46.812Z,15.43
2023-01-17T08:13:57.265Z,21.00
2023-01-17T08:19:02.456Z,18.30
2023-01-17T08:24:13.725Z,13.40
2023-01-17T08:29:19.048Z,10.40
2023-01-17T08:34:23.541Z,13.30
2023-01-17T08:44:33.713Z,12.48
2023-01-17T08:49:38.345Z,15.20
2023-01-17T08:54:44.381Z,12.05
2023-01-17T08:59:49.302Z,14.20
2023-01-17T09:04:53.831Z,14.02
2023-01-17T09:09:59.910Z,10.73
2023-01-17T09:15:05.169Z,12.65
2023-01-17T09:20:11.892Z,11.05
2023-01-17T09:25:18.025Z,15.32
2023-01-17T09:30:23.957Z,16.42
2023-01-17T09:35:28.700Z,11.98
2023-01-17T09:40:35.444Z,13.60
2023-01-17T09:45:40.728Z,12.43
2023-01-17T09:50:54.360Z,15.63
2023-01-17T09:56:05.720Z,12.77
2023-01-17T10:01:20.361Z,14.82
2023-01-17T10:12:02.284Z,13.85
2023-01-17T10:17:17.876Z,10.65
2023-01-17T10:22:46.644Z,12.80
2023-01-17T10:27:59.444Z,10.63
2023-01-17T10:33:13.825Z,10.10
2023-01-17T10:38:19.585Z,10.90
2023-01-17T10:43:35.970Z,11.70
2023-01-17T10:48:45.003Z,14.38
2023-01-17T10:54:07.577Z,11.60
2023-01-17T10:59:31.449Z,9.95
2023-01-17T11:04:38.963Z,10.07
2023-01-17T11:09:45.344Z,7.32
2023-01-17T11:15:04.993Z,7.28
2023-01-17T11:20:21.062Z,5.80
2023-01-17T11:25:26.475Z,8.32
2023-01-17T11:30:32.358Z,7.30
2023-01-17T11:35:39.002Z,6.18
2023-01-17T11:40:45.220Z,7.15
2023-01-17T11:46:07.820Z,7.13
2023-01-17T11:51:28.372Z,5.85
2023-01-17T11:56:35.064Z,5.55
2023-01-17T12:01:53.105Z,5.95
2023-01-17T12:07:25.628Z,6.03
2023-01-17T12:13:04.788Z,6.50
2023-01-17T12:18:34.917Z,5.45
2023-01-17T12:24:03.413Z,4.97
2023-01-17T12:29:44.724Z,5.65
2023-01-17T12:34:55.270Z,5.53
2023-01-17T12:40:07.204Z,5.95
2023-01-17T12:45:16.605Z,7.40
2023-01-17T12:50:29.614Z,6.60
2023-01-17T12:55:42.914Z,8.90
2023-01-17T13:00:52.236Z,7.97
2023-01-17T13:06:01.090Z,5.65
2023-01-17T13:11:12.599Z,6.75
2023-01-17T13:16:22.499Z,9.63
2023-01-17T13:21:33.022Z,5.78
2023-01-17T13:26:56.658Z,5.78
2023-01-17T13:32:16.228Z,7.10
2023-01-17T13:37:49.875Z,8.18
2023-01-17T13:42:57.176Z,5.88
2023-01-17T13:48:30.478Z,7.43
2023-01-17T13:53:55.186Z,9.57
2023-01-17T13:59:03.264Z,8.18
2023-01-17T14:04:09.267Z,9.43
2023-01-17T14:09:28.019Z,10.65
2023-01-17T14:14:52.141Z,5.75
2023-01-17T14:20:01.150Z,6.53
2023-01-17T14:25:18.670Z,7.75
2023-01-17T14:30:27.870Z,6.82
2023-01-17T14:35:36.461Z,10.30
2023-01-17T14:40:50.472Z,7.78
2023-01-17T14:46:01.476Z,7.07
2023-01-17T14:51:14.838Z,12.82
2023-01-17T14:56:20.832Z,12.93
2023-01-17T15:01:25.895Z,9.32
2023-01-17T15:06:38.703Z,14.93
2023-01-17T15:11:46.051Z,9.90
2023-01-17T15:16:52.104Z,14.77
2023-01-17T15:21:56.963Z,19.33
2023-01-17T15:27:03.390Z,20.27
2023-01-17T15:32:16.966Z,18.23
2023-01-17T15:37:30.127Z,21.23
2023-01-17T15:42:39.950Z,20.00
2023-01-17T15:47:44.847Z,27.20
2023-01-17T15:57:56.617Z,24.20
2023-01-17T16:03:01.585Z,23.70
2023-01-17T16:08:33.906Z,27.40
2023-01-17T16:13:42.434Z,33.55
2023-01-17T16:18:48.281Z,42.17
2023-01-17T16:23:53.572Z,46.78
2023-01-17T16:28:59.486Z,47.58
2023-01-17T16:34:04.186Z,51.28
2023-01-17T16:44:14.332Z,53.47
2023-01-17T16:49:18.976Z,50.95
2023-01-17T16:54:23.946Z,51.58
2023-01-17T17:04:53.865Z,51.03
2023-01-17T17:09:58.467Z,53.42
2023-01-17T17:15:05.316Z,52.58
2023-01-17T17:20:13.359Z,52.30
2023-01-17T17:25:18.738Z,54.42
2023-01-17T17:30:24.354Z,63.30
2023-01-17T17:35:28.707Z,71.22
2023-01-17T17:40:35.016Z,44.42
2023-01-17T17:45:40.870Z,39.58
2023-01-17T17:50:45.573Z,41.08
2023-01-17T18:01:02.429Z,54.80
2023-01-17T18:06:10.717Z,64.88
2023-01-17T18:11:18.811Z,58.75
2023-01-17T18:16:29.473Z,77.07
2023-01-17T18:21:37.930Z,89.93
2023-01-17T18:26:44.322Z,95.40
2023-01-17T18:31:51.696Z,87.13
2023-01-17T18:36:57.734Z,100.63
2023-01-17T18:46:38.109Z,110.10
2023-01-17T18:51:46.687Z,102.03
2023-01-17T18:56:52.662Z,100.35
2023-01-17T19:02:00.021Z,91.68
2023-01-17T19:07:05.557Z,90.43
2023-01-17T19:12:10.832Z,68.97
2023-01-17T19:17:18.915Z,65.15
2023-01-17T19:23:15.961Z,66.65
2023-01-17T19:31:43.293Z,61.72
2023-01-17T19:36:48.279Z,64.28
2023-01-17T19:41:52.731Z,85.13
2023-01-17T19:46:58.297Z,141.25
2023-01-17T19:52:02.797Z,85.50
2023-01-17T19:57:07.148Z,68.22
2023-01-17T20:07:17.538Z,56.92
2023-01-17T20:12:21.773Z,57.35
2023-01-17T20:17:27.525Z,64.25
2023-01-17T20:22:31.732Z,65.10
2023-01-17T20:27:36.334Z,62.47
2023-01-17T20:32:42.046Z,53.63
2023-01-17T20:37:46.692Z,57.58
2023-01-17T20:42:51.368Z,71.32
2023-01-17T20:53:01.986Z,72.90
2023-01-17T20:58:06.459Z,71.38
2023-01-17T21:08:18.655Z,81.78
2023-01-17T21:13:23.314Z,60.97
2023-01-17T21:23:36.345Z,49.13
2023-01-17T21:28:43.279Z,48.85
2023-01-17T21:33:49.852Z,52.20
2023-01-17T21:38:58.259Z,57.25
2023-01-17T21:44:05.375Z,55.38
2023-01-17T21:49:12.508Z,70.80
2023-01-17T21:54:17.251Z,65.30
2023-01-17T21:59:21.713Z,62.97
2023-01-17T22:04:29.528Z,56.22
2023-01-17T22:09:33.937Z,56.13
2023-01-17T22:14:39.535Z,54.83
2023-01-17T22:19:46.182Z,58.10
2023-01-17T22:24:50.780Z,56.63
2023-01-17T22:29:54.988Z,63.38
2023-01-17T22:35:00.596Z,50.75
2023-01-17T22:40:05.956Z,59.30
2023-01-17T22:45:11.463Z,58.92
2023-01-17T22:50:18.163Z,64.20
2023-01-17T22:55:22.632Z,64.32
2023-01-17T23:00:27.245Z,57.72
2023-01-17T23:05:33.069Z,63.20
2023-01-17T23:10:54.701Z,58.97
2023-01-17T23:16:16.378Z,65.13
2023-01-17T23:21:22.317Z,62.25
2023-01-17T23:26:26.777Z,62.20
2023-01-17T23:36:37.548Z,56.73
2023-01-17T23:41:59.264Z,54.30
2023-01-17T23:47:03.861Z,58.88
2023-01-17T23:52:09.700Z,50.80
2023-01-17T23:57:14.477Z,56.35
